F/V Le Natif 2 — FKVW — position and weather

sailwx.info

Track history (hours):
 
Tides and Currents Weather Stations Pressure Air Temp Water Temp Dewpoint Dewpoint Depression Visibility Wind Speed Wind Dir Waves Ship Positions

F/V Le Natif 2

Last reported at 2015-Jul-05 15:12 UTC. Time now 2015-Jul-06 00:58 UTC.
Position N 46°18' W 002°13'.

Length 16 m.

Type: Fishing. MMSI: 228131600.

Date/timePositionNaut miles runAvg speedWind from/ knotsBaromVisibWave heightAir tempDewpointWater temp
2015-Jul-05 15:12N 46°18' W 002°13'14 5.1
2015-Jul-05 12:32N 46°29' W 002°25'5 2.0
2015-Jul-05 10:13N 46°25' W 002°29'6 8.9
2015-Jul-05 09:33N 46°21' W 002°24'7 2.1
2015-Jul-05 06:15N 46°28' W 002°23'1 1.3
2015-Jul-05 05:33N 46°29' W 002°23'5 5.4
2015-Jul-05 04:33N 46°31' W 002°17'8 8.0
2015-Jul-05 03:33N 46°36' W 002°07'8 8.1
2015-Jul-05 02:33N 46°41' W 001°58'1 0.0
2015-Jul-03 09:31N 46°42' W 001°56'0 0.0
2015-Jul-03 08:33N 46°42' W 001°56'0 0.0
2015-Jul-03 05:32N 46°42' W 001°56'0 0.0
2015-Jul-03 04:33N 46°42' W 001°56'2 2.5
2015-Jul-03 03:33N 46°40' W 001°60'10 9.7
2015-Jul-03 02:33N 46°40' W 002°14'1010.2
2015-Jul-03 01:33N 46°40' W 002°29'12 9.9
2015-Jul-03 00:20N 46°41' W 002°46'20 9.6
2015-Jul-02 22:13N 46°41' W 003°16'8 9.5
2015-Jul-02 21:24N 46°41' W 003°27'7 8.8
2015-Jul-02 20:33N 46°41' W 003°38'48 1.8
2015-Jul-01 17:31N 46°47' W 004°48'10 8.9
2015-Jul-01 16:20N 46°51' W 004°34'15 8.5
2015-Jul-01 14:33N 46°56' W 004°14'8 8.0
2015-Jul-01 13:33N 46°59' W 004°02'9 8.3
2015-Jul-01 12:30N 47°02' W 003°50'8 8.3
2015-Jul-01 11:33N 47°05' W 003°40'9 8.7
2015-Jul-01 10:33N 47°08' W 003°28'9 9.1
2015-Jul-01 09:33N 47°10' W 003°15'10 9.6
2015-Jul-01 08:33N 47°14' W 003°02'1010.1
2015-Jul-01 07:33N 47°17' W 002°48'10 9.8
2015-Jul-01 06:33N 47°20' W 002°34'2 2.2
2015-Jul-01 05:33N 47°21' W 002°31'0 0.0
2015-Jul-01 04:33N 47°21' W 002°31'2 1.9
2015-Jul-01 03:33N 47°20' W 002°33'1010.0
2015-Jul-01 02:32N 47°17' W 002°48'1010.1
2015-Jul-01 01:33N 47°14' W 003°02'1010.1
2015-Jul-01 00:33N 47°10' W 003°16'1010.0
2015-Jun-30 23:32N 47°08' W 003°30'10 9.7
2015-Jun-30 22:32N 47°04' W 003°44'12 9.7
2015-Jun-30 21:17N 47°00' W 004°00'9 9.1
2015-Jun-30 20:17N 46°57' W 004°13'9 9.4
2015-Jun-30 19:20N 46°54' W 004°25'8 9.0
2015-Jun-30 18:25N 46°51' W 004°36'39 3.6
2015-Jun-30 07:31N 46°52' W 005°33'3 3.4
2015-Jun-30 06:33N 46°49' W 005°32'1 0.8
2015-Jun-30 05:07N 46°48' W 005°31'5 1.1
2015-Jun-30 00:30N 46°44' W 005°27'14 3.4
2015-Jun-29 20:13N 46°47' W 005°07'4 4.0
2015-Jun-29 19:05N 46°43' W 005°04'2 4.3
2015-Jun-29 18:33N 46°42' W 005°01'4 3.8
2015-Jun-29 17:31N 46°43' W 004°56'0 0.4
2015-Jun-29 16:33N 46°43' W 004°55'1 1.4
2015-Jun-29 15:33N 46°42' W 004°54'4 3.2
2015-Jun-29 14:26N 46°40' W 004°49'9 3.2
2015-Jun-29 11:31N 46°38' W 005°02'4 4.4
2015-Jun-29 10:33N 46°39' W 005°08'4 4.0
2015-Jun-29 09:32N 46°39' W 005°02'1 0.9
2015-Jun-29 08:33N 46°38' W 005°02'3 2.3
2015-Jun-29 07:14N 46°37' W 004°58'2 3.5
2015-Jun-29 06:33N 46°37' W 004°54'1 1.5
2015-Jun-29 05:33N 46°39' W 004°54'7 6.9
2015-Jun-29 04:33N 46°39' W 004°44'9 9.2
2015-Jun-29 03:32N 46°39' W 004°30'8 8.6
2015-Jun-29 02:33N 46°40' W 004°18'9 8.8
2015-Jun-29 01:33N 46°40' W 004°05'8 8.3
2015-Jun-29 00:33N 46°40' W 003°53'8 8.2
2015-Jun-28 23:33N 46°40' W 003°41'8 8.3
2015-Jun-28 22:33N 46°41' W 003°29'8 8.4
2015-Jun-28 21:33N 46°41' W 003°17'8 8.5
2015-Jun-28 20:33N 46°41' W 003°05'9 8.8
2015-Jun-28 19:33N 46°41' W 002°52'9 8.7
2015-Jun-28 18:33N 46°41' W 002°39'9 8.9
2015-Jun-28 17:33N 46°40' W 002°26'9 9.0
2015-Jun-28 16:32N 46°40' W 002°13'9 8.8
2015-Jun-28 15:33N 46°41' W 002°00'3 0.1
2015-Jun-26 12:23N 46°42' W 001°57'0 0.1
2015-Jun-26 11:33N 46°42' W 001°57'5 4.7
2015-Jun-26 10:33N 46°42' W 002°03'10 9.6
2015-Jun-26 09:33N 46°47' W 002°15'10 9.6
2015-Jun-26 08:33N 46°55' W 002°23'9 9.0
2015-Jun-26 07:33N 47°04' W 002°28'9 9.2
2015-Jun-26 06:33N 47°12' W 002°33'8 8.3
2015-Jun-26 05:33N 47°20' W 002°31'1 0.6
2015-Jun-26 04:33N 47°21' W 002°31'7 6.6
2015-Jun-26 03:33N 47°19' W 002°40'9 9.2
2015-Jun-26 02:33N 47°15' W 002°52'9 9.0
2015-Jun-26 01:34N 47°11' W 003°04'9 9.3
2015-Jun-26 00:33N 47°08' W 003°17'9 9.2
2015-Jun-25 23:33N 47°05' W 003°30'10 9.9
2015-Jun-25 22:33N 47°01' W 003°43'10 9.7
2015-Jun-25 21:33N 46°57' W 003°56'1010.0
2015-Jun-25 20:33N 46°53' W 004°10'1010.0
2015-Jun-25 19:33N 46°49' W 004°23'10 9.6
2015-Jun-25 18:31N 46°45' W 004°37'1110.1
2015-Jun-25 17:24N 46°40' W 004°52'7 7.4
2015-Jun-25 16:26N 46°38' W 005°01'3 3.2
2015-Jun-25 15:25N 46°40' W 005°05'  
Track history (hours):
 
Tides and Currents Weather Stations Pressure Air Temp Water Temp Dewpoint Dewpoint Depression Visibility Wind Speed Wind Dir Waves Ship Positions

F/V Le Natif 2

Last reported at 2015-Jul-05 15:12 UTC. Time now 2015-Jul-06 00:58 UTC.
Position N 46°18' W 002°13'.

Length 16 m.

Type: Fishing. MMSI: 228131600.

Date/timePositionNaut miles runAvg speedWind from/ knotsBaromVisibWave heightAir tempDewpointWater temp
2015-Jul-05 15:12N 46°18' W 002°13'14 5.1
2015-Jul-05 12:32N 46°29' W 002°25'5 2.0
2015-Jul-05 10:13N 46°25' W 002°29'6 8.9
2015-Jul-05 09:33N 46°21' W 002°24'7 2.1
2015-Jul-05 06:15N 46°28' W 002°23'1 1.3
2015-Jul-05 05:33N 46°29' W 002°23'5 5.4
2015-Jul-05 04:33N 46°31' W 002°17'8 8.0
2015-Jul-05 03:33N 46°36' W 002°07'8 8.1
2015-Jul-05 02:33N 46°41' W 001°58'1 0.0
2015-Jul-03 09:31N 46°42' W 001°56'0 0.0
2015-Jul-03 08:33N 46°42' W 001°56'0 0.0
2015-Jul-03 05:32N 46°42' W 001°56'0 0.0
2015-Jul-03 04:33N 46°42' W 001°56'2 2.5
2015-Jul-03 03:33N 46°40' W 001°60'10 9.7
2015-Jul-03 02:33N 46°40' W 002°14'1010.2
2015-Jul-03 01:33N 46°40' W 002°29'12 9.9
2015-Jul-03 00:20N 46°41' W 002°46'20 9.6
2015-Jul-02 22:13N 46°41' W 003°16'8 9.5
2015-Jul-02 21:24N 46°41' W 003°27'7 8.8
2015-Jul-02 20:33N 46°41' W 003°38'48 1.8
2015-Jul-01 17:31N 46°47' W 004°48'10 8.9
2015-Jul-01 16:20N 46°51' W 004°34'15 8.5
2015-Jul-01 14:33N 46°56' W 004°14'8 8.0
2015-Jul-01 13:33N 46°59' W 004°02'9 8.3
2015-Jul-01 12:30N 47°02' W 003°50'8 8.3
2015-Jul-01 11:33N 47°05' W 003°40'9 8.7
2015-Jul-01 10:33N 47°08' W 003°28'9 9.1
2015-Jul-01 09:33N 47°10' W 003°15'10 9.6
2015-Jul-01 08:33N 47°14' W 003°02'1010.1
2015-Jul-01 07:33N 47°17' W 002°48'10 9.8
2015-Jul-01 06:33N 47°20' W 002°34'2 2.2
2015-Jul-01 05:33N 47°21' W 002°31'0 0.0
2015-Jul-01 04:33N 47°21' W 002°31'2 1.9
2015-Jul-01 03:33N 47°20' W 002°33'1010.0
2015-Jul-01 02:32N 47°17' W 002°48'1010.1
2015-Jul-01 01:33N 47°14' W 003°02'1010.1
2015-Jul-01 00:33N 47°10' W 003°16'1010.0
2015-Jun-30 23:32N 47°08' W 003°30'10 9.7
2015-Jun-30 22:32N 47°04' W 003°44'12 9.7
2015-Jun-30 21:17N 47°00' W 004°00'9 9.1
2015-Jun-30 20:17N 46°57' W 004°13'9 9.4
2015-Jun-30 19:20N 46°54' W 004°25'8 9.0
2015-Jun-30 18:25N 46°51' W 004°36'39 3.6
2015-Jun-30 07:31N 46°52' W 005°33'3 3.4
2015-Jun-30 06:33N 46°49' W 005°32'1 0.8
2015-Jun-30 05:07N 46°48' W 005°31'5 1.1
2015-Jun-30 00:30N 46°44' W 005°27'14 3.4
2015-Jun-29 20:13N 46°47' W 005°07'4 4.0
2015-Jun-29 19:05N 46°43' W 005°04'2 4.3
2015-Jun-29 18:33N 46°42' W 005°01'4 3.8
2015-Jun-29 17:31N 46°43' W 004°56'0 0.4
2015-Jun-29 16:33N 46°43' W 004°55'1 1.4
2015-Jun-29 15:33N 46°42' W 004°54'4 3.2
2015-Jun-29 14:26N 46°40' W 004°49'9 3.2
2015-Jun-29 11:31N 46°38' W 005°02'4 4.4
2015-Jun-29 10:33N 46°39' W 005°08'4 4.0
2015-Jun-29 09:32N 46°39' W 005°02'1 0.9
2015-Jun-29 08:33N 46°38' W 005°02'3 2.3
2015-Jun-29 07:14N 46°37' W 004°58'2 3.5
2015-Jun-29 06:33N 46°37' W 004°54'1 1.5
2015-Jun-29 05:33N 46°39' W 004°54'7 6.9
2015-Jun-29 04:33N 46°39' W 004°44'9 9.2
2015-Jun-29 03:32N 46°39' W 004°30'8 8.6
2015-Jun-29 02:33N 46°40' W 004°18'9 8.8
2015-Jun-29 01:33N 46°40' W 004°05'8 8.3
2015-Jun-29 00:33N 46°40' W 003°53'8 8.2
2015-Jun-28 23:33N 46°40' W 003°41'8 8.3
2015-Jun-28 22:33N 46°41' W 003°29'8 8.4
2015-Jun-28 21:33N 46°41' W 003°17'8 8.5
2015-Jun-28 20:33N 46°41' W 003°05'9 8.8
2015-Jun-28 19:33N 46°41' W 002°52'9 8.7
2015-Jun-28 18:33N 46°41' W 002°39'9 8.9
2015-Jun-28 17:33N 46°40' W 002°26'9 9.0
2015-Jun-28 16:32N 46°40' W 002°13'9 8.8
2015-Jun-28 15:33N 46°41' W 002°00'3 0.1
2015-Jun-26 12:23N 46°42' W 001°57'0 0.1
2015-Jun-26 11:33N 46°42' W 001°57'5 4.7
2015-Jun-26 10:33N 46°42' W 002°03'10 9.6
2015-Jun-26 09:33N 46°47' W 002°15'10 9.6
2015-Jun-26 08:33N 46°55' W 002°23'9 9.0
2015-Jun-26 07:33N 47°04' W 002°28'9 9.2
2015-Jun-26 06:33N 47°12' W 002°33'8 8.3
2015-Jun-26 05:33N 47°20' W 002°31'1 0.6
2015-Jun-26 04:33N 47°21' W 002°31'7 6.6
2015-Jun-26 03:33N 47°19' W 002°40'9 9.2
2015-Jun-26 02:33N 47°15' W 002°52'9 9.0
2015-Jun-26 01:34N 47°11' W 003°04'9 9.3
2015-Jun-26 00:33N 47°08' W 003°17'9 9.2
2015-Jun-25 23:33N 47°05' W 003°30'10 9.9
2015-Jun-25 22:33N 47°01' W 003°43'10 9.7
2015-Jun-25 21:33N 46°57' W 003°56'1010.0
2015-Jun-25 20:33N 46°53' W 004°10'1010.0
2015-Jun-25 19:33N 46°49' W 004°23'10 9.6
2015-Jun-25 18:31N 46°45' W 004°37'1110.1
2015-Jun-25 17:24N 46°40' W 004°52'7 7.4
2015-Jun-25 16:26N 46°38' W 005°01'3 3.2
2015-Jun-25 15:25N 46°40' W 005°05'  

Dump ship's entire track history